Aeroporto :
LOGIN :

Iscrizione | Disclaimer

   EN    FR    IT 

 










Sommario :    VFR   VFR Marginale   IFR   IFR Intensivo   IFR Molto Intensivo
Visibilità : 
Base nubi : 
>= 8 km
>= 3000ft
5 / 8 km
1000 / 3000 ft
1500m / 5 km
500 / 1000 ft
800 / 1500m
200 / 500 ft
< 800m
< 200 ft
Simboli :   Temporali  Nebbia  Neve Forte  Precipitazioni Forti  Vento > 20 kt
SIGMETs :   Varie  Temporali  Ghiacco  Turbolenza  Onda orograficha  Ceneri Vulcaniche






- Altitudine del aeroporto : 791 ft
- Codice IATA : KRK


EPKK - Krakow-Balice

ULTIMO METAR :
  • 171430Z 23008KT CAVOK 14/04 Q1016

METARs OBSOLETI :
  • 171400Z 26010KT CAVOK 15/03 Q1016
  • 171330Z 26009KT CAVOK 15/03 Q1016
  • 171300Z 24007KT CAVOK 15/03 Q1016
  • 171230Z 23009KT CAVOK 15/03 Q1016
  • 171200Z 23010KT CAVOK 15/02 Q1016

TAF TAF EPKK
Valido dal 17 a 15 ore il 18 a 15 ore UTC


171430Z 1715/1815 26012KT CAVOK
BECMG 1715/1718 23002KT
BECMG 1721/1723 26012KT BKN014
TEMPO 1723/1803 4000 RA BKN008 OVC013
BECMG 1803/1805 SCT030
BECMG 1807/1810 25016G28KT
TEMPO 1810/1815 BKN023CB



MetMap, La meteo Aeronautica in un colpo d'occhio ! - Copyright ORBIFLY Dicembre 2007 - Disclaimer

ORBIFLY MET'MAP TEAM :

Programmazione e sviluppo : Alexandra Zaïnal
Concezione : Baudouin d'Aumeries
Aiuto per la programmazione : Marc-Olivier Méhu
Supporto tecnico e logistico : Manuel Goepfert
Aiuto per la traduzione : Arnaldo La Scala

Contatto : metmap@orbifly.com




FONTI E CREDITI :

   NOAA